createdAt,value
2017-10-04T00:01:35.350Z,67.70
2017-10-04T00:04:05.698Z,67.60
2017-10-04T00:06:37.873Z,67.10
2017-10-04T00:09:06.204Z,67.30
2017-10-04T00:11:35.995Z,69.20
2017-10-04T00:14:07.285Z,69.60
2017-10-04T00:16:37.815Z,69.60
2017-10-04T00:19:07.535Z,69.40
2017-10-04T00:21:37.291Z,69.40
2017-10-04T00:24:07.832Z,69.10
2017-10-04T00:26:37.679Z,69.60
2017-10-04T00:29:07.166Z,69.20
2017-10-04T00:31:36.789Z,69.40
2017-10-04T00:34:06.663Z,68.80
2017-10-04T00:36:37.080Z,69.40
2017-10-04T00:39:06.912Z,69.40
2017-10-04T00:41:36.469Z,69.30
2017-10-04T00:44:06.552Z,70.20
2017-10-04T00:46:36.011Z,69.60
2017-10-04T00:49:05.600Z,68.80
2017-10-04T00:51:35.062Z,69.60
2017-10-04T00:54:04.576Z,70.00
2017-10-04T00:56:34.745Z,69.20
2017-10-04T00:59:04.340Z,68.60
2017-10-04T01:01:35.121Z,68.90
2017-10-04T01:04:05.421Z,69.10
2017-10-04T01:06:33.953Z,69.00
2017-10-04T01:09:02.523Z,69.00
2017-10-04T01:11:31.263Z,69.00
2017-10-04T01:14:00.755Z,68.70
2017-10-04T01:16:32.444Z,68.60
2017-10-04T01:19:01.588Z,68.70
2017-10-04T01:21:32.260Z,68.90
2017-10-04T01:24:02.014Z,69.50
2017-10-04T01:26:31.667Z,69.70
2017-10-04T01:29:01.286Z,70.50
2017-10-04T01:31:31.198Z,70.90
2017-10-04T01:34:00.261Z,70.70
2017-10-04T01:36:29.690Z,70.10
2017-10-04T01:38:59.195Z,70.20
2017-10-04T01:41:28.514Z,70.70
2017-10-04T01:43:58.261Z,70.00
2017-10-04T01:46:28.356Z,69.80
2017-10-04T01:48:58.163Z,69.80
2017-10-04T01:51:27.272Z,69.90
2017-10-04T01:53:56.754Z,70.20
2017-10-04T01:56:26.415Z,71.20
2017-10-04T01:58:55.933Z,71.40
2017-10-04T02:01:25.390Z,70.80
2017-10-04T02:03:55.039Z,70.50
2017-10-04T02:06:24.525Z,70.50
2017-10-04T02:08:54.831Z,69.80
2017-10-04T02:11:25.831Z,69.80
2017-10-04T02:13:55.505Z,70.20
2017-10-04T02:16:25.176Z,69.40
2017-10-04T02:18:56.563Z,70.00
2017-10-04T02:21:26.656Z,70.20
2017-10-04T02:23:57.289Z,70.10
2017-10-04T02:26:26.695Z,69.90
2017-10-04T02:28:56.012Z,70.00
2017-10-04T02:31:28.747Z,69.60
2017-10-04T02:33:58.373Z,69.60
2017-10-04T02:36:28.139Z,69.50
2017-10-04T02:38:59.335Z,69.60
2017-10-04T02:41:28.512Z,70.80
2017-10-04T02:43:57.736Z,71.60
2017-10-04T02:46:26.594Z,71.70
2017-10-04T02:48:54.149Z,71.80
2017-10-04T02:51:21.763Z,71.70
2017-10-04T02:53:50.103Z,71.80
2017-10-04T02:56:17.659Z,71.80
2017-10-04T02:58:45.287Z,71.60
2017-10-04T03:01:12.859Z,70.90
2017-10-04T03:03:42.136Z,70.30
2017-10-04T03:06:13.786Z,70.80
2017-10-04T03:08:43.867Z,70.80
2017-10-04T03:11:14.204Z,71.00
2017-10-04T03:13:44.075Z,71.40
2017-10-04T03:16:13.729Z,70.90
2017-10-04T03:18:43.403Z,70.80
2017-10-04T03:21:13.184Z,70.90
2017-10-04T03:23:41.520Z,71.10
2017-10-04T03:26:09.136Z,71.10
2017-10-04T03:28:38.714Z,71.50
2017-10-04T03:31:07.096Z,70.50
2017-10-04T03:33:35.424Z,70.20
2017-10-04T03:36:02.986Z,70.10
2017-10-04T03:38:30.573Z,69.70
2017-10-04T03:40:58.134Z,69.80
2017-10-04T03:43:25.737Z,70.10
2017-10-04T03:45:53.343Z,70.40
2017-10-04T03:48:20.898Z,70.00
2017-10-04T03:50:50.616Z,70.30
2017-10-04T03:53:18.178Z,70.40
2017-10-04T03:55:45.774Z,70.40
2017-10-04T03:58:14.101Z,70.60
2017-10-04T04:00:41.723Z,70.60
2017-10-04T04:03:10.091Z,71.10
2017-10-04T04:05:38.422Z,70.80
2017-10-04T04:08:06.043Z,70.70
2017-10-04T04:10:34.371Z,70.00
2017-10-04T04:13:01.934Z,70.00
2017-10-04T04:15:29.532Z,70.90
2017-10-04T04:17:57.890Z,71.30
2017-10-04T04:20:25.489Z,71.30
2017-10-04T04:22:53.099Z,71.90
2017-10-04T04:25:20.651Z,71.40
2017-10-04T04:27:48.233Z,71.80
2017-10-04T04:30:15.845Z,71.90
2017-10-04T04:32:43.456Z,71.70
2017-10-04T04:35:11.017Z,70.90
2017-10-04T04:37:38.583Z,70.40
2017-10-04T04:40:06.174Z,70.00
2017-10-04T04:42:33.783Z,69.70
2017-10-04T04:45:01.353Z,69.70
2017-10-04T04:47:28.923Z,70.50
2017-10-04T04:49:56.523Z,71.20
2017-10-04T04:52:24.123Z,71.10
2017-10-04T04:54:51.714Z,71.60
2017-10-04T04:57:19.290Z,71.90
2017-10-04T04:59:47.654Z,71.10
2017-10-04T05:02:15.259Z,71.10
2017-10-04T05:04:42.851Z,71.50
2017-10-04T05:07:11.175Z,70.30
2017-10-04T05:09:39.531Z,69.90
2017-10-04T05:12:07.866Z,70.50
2017-10-04T05:14:35.453Z,70.50
2017-10-04T05:17:03.050Z,70.40
2017-10-04T05:19:31.423Z,71.30
2017-10-04T05:21:59.801Z,71.60
2017-10-04T05:24:27.398Z,71.50
2017-10-04T05:26:54.965Z,71.10
2017-10-04T05:29:22.583Z,70.70
2017-10-04T05:31:50.923Z,70.20
2017-10-04T05:34:18.515Z,70.10
2017-10-04T05:36:46.879Z,72.20
2017-10-04T05:39:14.443Z,72.10
2017-10-04T05:41:42.039Z,72.20
2017-10-04T05:44:10.375Z,71.50
2017-10-04T05:46:37.979Z,71.50
2017-10-04T05:49:05.542Z,71.00
2017-10-04T05:51:33.634Z,70.60
2017-10-04T05:54:01.326Z,71.20
2017-10-04T05:56:28.959Z,71.70
2017-10-04T05:58:56.547Z,71.50
2017-10-04T06:01:24.116Z,71.70
2017-10-04T06:03:51.726Z,72.10
2017-10-04T06:06:19.333Z,72.10
2017-10-04T06:08:47.926Z,73.10
2017-10-04T06:11:15.492Z,73.20
2017-10-04T06:13:43.062Z,72.80
2017-10-04T06:16:11.938Z,73.40
2017-10-04T06:18:39.502Z,73.30
2017-10-04T06:21:07.287Z,73.50
2017-10-04T06:23:35.628Z,72.50
2017-10-04T06:26:03.190Z,72.50
2017-10-04T06:28:30.799Z,72.60
2017-10-04T06:30:59.146Z,72.20
2017-10-04T06:33:37.320Z,72.10
2017-10-04T06:36:05.629Z,72.10
2017-10-04T06:38:33.980Z,72.80
2017-10-04T06:41:01.582Z,72.80
2017-10-04T06:43:29.974Z,72.40
2017-10-04T06:45:58.347Z,71.80
2017-10-04T06:48:26.718Z,71.70
2017-10-04T06:50:54.338Z,71.60
2017-10-04T06:53:21.905Z,71.80
2017-10-04T06:55:49.803Z,72.80
2017-10-04T06:58:17.530Z,73.20
2017-10-04T07:00:45.790Z,73.70
2017-10-04T07:03:15.780Z,73.50
2017-10-04T07:05:43.463Z,73.40
2017-10-04T07:08:16.402Z,73.00
2017-10-04T07:10:44.536Z,72.80
2017-10-04T07:13:12.292Z,72.00
2017-10-04T07:15:40.379Z,71.80
2017-10-04T07:18:07.989Z,71.20
2017-10-04T07:20:35.601Z,70.30
2017-10-04T07:23:03.166Z,71.40
2017-10-04T07:25:30.735Z,71.90
2017-10-04T07:27:58.325Z,71.70
2017-10-04T07:30:26.915Z,71.60
2017-10-04T07:32:54.579Z,71.60
2017-10-04T07:35:22.480Z,72.00
2017-10-04T07:37:50.108Z,71.70
2017-10-04T07:40:17.896Z,71.20
2017-10-04T07:42:45.523Z,70.30
2017-10-04T07:45:13.087Z,70.60
2017-10-04T07:47:40.772Z,71.00
2017-10-04T07:50:09.106Z,71.10
2017-10-04T07:52:36.684Z,71.10
2017-10-04T07:55:04.328Z,71.50
2017-10-04T07:57:31.902Z,70.30
2017-10-04T07:59:59.519Z,70.30
2017-10-04T08:02:27.118Z,70.30
2017-10-04T08:04:54.723Z,70.90
2017-10-04T08:07:23.102Z,71.50
2017-10-04T08:09:51.491Z,71.20
2017-10-04T08:12:19.060Z,71.00
2017-10-04T08:14:55.087Z,71.50
2017-10-04T08:17:23.719Z,71.30
2017-10-04T08:19:51.339Z,70.30
2017-10-04T08:22:19.687Z,70.30
2017-10-04T08:24:47.287Z,70.30
2017-10-04T08:27:15.617Z,70.30
2017-10-04T08:29:43.214Z,70.30
2017-10-04T08:32:11.592Z,70.90
2017-10-04T08:34:39.942Z,70.60
2017-10-04T08:37:07.551Z,70.50
2017-10-04T08:39:35.110Z,70.80
2017-10-04T08:42:03.370Z,70.90
2017-10-04T08:44:33.327Z,70.50
2017-10-04T08:47:12.906Z,70.50
2017-10-04T08:49:40.516Z,69.90
2017-10-04T08:52:08.190Z,69.00
2017-10-04T08:54:36.295Z,69.80
2017-10-04T08:57:04.432Z,69.90
2017-10-04T08:59:32.326Z,69.40
2017-10-04T09:02:01.237Z,69.50
2017-10-04T09:04:41.305Z,69.80
2017-10-04T09:07:09.891Z,69.70
2017-10-04T09:09:38.486Z,69.40
2017-10-04T09:12:06.958Z,68.70
2017-10-04T09:14:34.529Z,68.70
2017-10-04T09:17:02.899Z,68.70
2017-10-04T09:19:31.234Z,68.60
2017-10-04T09:21:58.916Z,68.50
2017-10-04T09:24:26.523Z,68.50
2017-10-04T09:26:54.855Z,68.50
2017-10-04T09:29:22.568Z,68.50
2017-10-04T09:31:50.160Z,68.70
2017-10-04T09:34:17.959Z,68.60
2017-10-04T09:36:46.914Z,67.80
2017-10-04T09:39:15.693Z,66.40
2017-10-04T09:41:45.174Z,65.10
2017-10-04T09:44:13.638Z,65.00
2017-10-04T09:46:41.738Z,65.80
2017-10-04T09:49:10.269Z,64.70
2017-10-04T09:51:38.700Z,64.80
2017-10-04T09:54:07.914Z,65.40
2017-10-04T09:56:35.738Z,65.40
2017-10-04T09:59:03.915Z,65.60
2017-10-04T10:01:32.397Z,66.10
2017-10-04T10:04:00.014Z,66.60
2017-10-04T10:06:27.779Z,66.70
2017-10-04T10:08:55.406Z,66.40
2017-10-04T10:11:22.998Z,66.70
2017-10-04T10:13:50.572Z,62.20
2017-10-04T10:16:18.208Z,62.50
2017-10-04T10:18:45.778Z,61.30
2017-10-04T10:21:13.386Z,60.60
2017-10-04T10:23:41.002Z,60.80
2017-10-04T10:26:08.576Z,60.90
2017-10-04T10:28:36.240Z,61.60
2017-10-04T10:31:03.812Z,59.60
2017-10-04T10:33:31.442Z,59.10
2017-10-04T10:35:59.007Z,57.70
2017-10-04T10:38:26.598Z,58.30
2017-10-04T10:40:54.192Z,57.70
2017-10-04T10:43:21.941Z,57.00
2017-10-04T10:45:50.313Z,54.70
2017-10-04T10:48:17.878Z,54.60
2017-10-04T10:50:46.270Z,55.40
2017-10-04T10:53:14.683Z,54.60
2017-10-04T10:55:42.476Z,54.60
2017-10-04T10:58:10.046Z,54.50
2017-10-04T11:00:37.690Z,55.80
2017-10-04T11:03:05.252Z,56.20
2017-10-04T11:05:32.854Z,56.70
2017-10-04T11:08:00.526Z,56.10
2017-10-04T11:10:28.854Z,56.90
2017-10-04T11:12:56.439Z,56.80
2017-10-04T11:15:24.859Z,55.00
2017-10-04T11:17:52.468Z,54.90
2017-10-04T11:20:20.086Z,55.10
2017-10-04T11:22:48.456Z,55.40
2017-10-04T11:25:16.077Z,55.40
2017-10-04T11:27:43.694Z,55.90
2017-10-04T11:30:11.283Z,55.10
2017-10-04T11:32:38.855Z,54.50
2017-10-04T11:35:06.489Z,54.90
2017-10-04T11:37:34.066Z,53.80
2017-10-04T11:40:01.900Z,54.50
2017-10-04T11:42:29.552Z,55.80
2017-10-04T11:44:57.157Z,54.30
2017-10-04T11:47:24.807Z,55.00
2017-10-04T11:49:52.441Z,54.00
2017-10-04T11:52:20.023Z,55.50
2017-10-04T11:54:49.301Z,53.60
2017-10-04T11:57:16.883Z,53.60
2017-10-04T11:59:44.449Z,53.40
2017-10-04T12:02:12.050Z,52.50
2017-10-04T12:04:39.750Z,51.80
2017-10-04T12:07:07.363Z,51.00
2017-10-04T12:09:34.952Z,49.00
2017-10-04T12:12:03.431Z,50.40
2017-10-04T12:14:37.203Z,50.40
2017-10-04T12:17:04.802Z,48.30
2017-10-04T12:19:32.397Z,48.80
2017-10-04T12:22:00.045Z,48.60
2017-10-04T12:24:27.613Z,49.00
2017-10-04T12:26:55.187Z,48.10
2017-10-04T12:29:22.807Z,45.70
2017-10-04T12:31:51.142Z,45.00
2017-10-04T12:34:18.831Z,45.00
2017-10-04T12:36:46.546Z,45.00
2017-10-04T12:39:14.280Z,47.30
2017-10-04T12:41:42.648Z,48.60
2017-10-04T12:44:12.207Z,48.50
2017-10-04T12:46:39.806Z,47.40
2017-10-04T12:49:07.443Z,47.90
2017-10-04T12:51:35.011Z,48.30
2017-10-04T12:54:02.591Z,47.50
2017-10-04T12:56:30.979Z,48.00
2017-10-04T12:58:59.323Z,48.00
2017-10-04T13:01:27.263Z,48.00
2017-10-04T13:03:54.918Z,48.50
2017-10-04T13:06:22.495Z,48.50
2017-10-04T13:08:50.130Z,49.40
2017-10-04T13:11:18.475Z,50.40
2017-10-04T13:13:46.090Z,50.40
2017-10-04T13:16:13.916Z,49.50
2017-10-04T13:18:42.319Z,50.20
2017-10-04T13:21:09.949Z,50.10
2017-10-04T13:23:37.550Z,50.00
2017-10-04T13:26:05.163Z,49.30
2017-10-04T13:28:32.782Z,50.10
2017-10-04T13:31:00.459Z,48.80
2017-10-04T13:33:28.034Z,49.10
2017-10-04T13:35:55.646Z,48.90
2017-10-04T13:38:24.225Z,49.60
2017-10-04T13:40:51.822Z,49.60
2017-10-04T13:43:19.509Z,49.90
2017-10-04T13:45:47.082Z,50.30
2017-10-04T13:48:14.726Z,49.80
2017-10-04T13:50:43.338Z,50.80
2017-10-04T13:53:10.909Z,50.80
2017-10-04T13:55:39.306Z,50.50
2017-10-04T13:58:06.926Z,50.40
2017-10-04T14:00:34.534Z,49.30
2017-10-04T14:03:02.171Z,49.90
2017-10-04T14:05:30.769Z,50.90
2017-10-04T14:07:58.438Z,50.80
2017-10-04T14:10:26.775Z,50.50
2017-10-04T14:12:54.386Z,50.50
2017-10-04T14:15:21.956Z,49.90
2017-10-04T14:17:49.578Z,50.20
2017-10-04T14:20:17.247Z,51.00
2017-10-04T14:22:44.959Z,50.40
2017-10-04T14:25:12.648Z,51.30
2017-10-04T14:27:40.228Z,51.20
2017-10-04T14:30:08.636Z,52.30
2017-10-04T14:32:36.211Z,52.30
2017-10-04T14:35:03.790Z,52.20
2017-10-04T14:37:31.511Z,52.70
2017-10-04T14:39:59.855Z,53.20
2017-10-04T14:42:27.454Z,53.20
2017-10-04T14:44:55.085Z,53.10
2017-10-04T14:47:22.670Z,53.40
2017-10-04T14:49:51.017Z,53.20
2017-10-04T14:52:18.623Z,53.10
2017-10-04T14:54:46.215Z,54.00
2017-10-04T14:57:13.843Z,54.30
2017-10-04T14:59:41.421Z,54.40
2017-10-04T15:02:09.028Z,53.90
2017-10-04T15:04:36.651Z,53.90
2017-10-04T15:07:04.991Z,54.20
2017-10-04T15:09:33.363Z,54.20
2017-10-04T15:12:00.926Z,54.20
2017-10-04T15:14:29.310Z,54.10
2017-10-04T15:16:57.672Z,53.50
2017-10-04T15:19:25.606Z,53.50
2017-10-04T15:21:53.468Z,53.90
2017-10-04T15:24:21.052Z,54.20
2017-10-04T15:26:48.670Z,54.40
2017-10-04T15:29:16.507Z,54.60
2017-10-04T15:31:58.712Z,54.40
2017-10-04T15:34:27.073Z,54.90
2017-10-04T15:36:54.643Z,54.50
2017-10-04T15:39:22.251Z,54.50
2017-10-04T15:41:49.839Z,55.50
2017-10-04T15:44:17.466Z,54.80
2017-10-04T15:46:45.035Z,55.40
2017-10-04T15:49:12.605Z,55.00
2017-10-04T15:51:40.198Z,55.20
2017-10-04T15:54:07.781Z,55.30
2017-10-04T15:56:36.182Z,55.30
2017-10-04T15:59:03.746Z,55.30
2017-10-04T16:01:31.305Z,55.90
2017-10-04T16:03:58.902Z,56.10
2017-10-04T16:06:28.460Z,56.70
2017-10-04T16:08:59.982Z,56.50
2017-10-04T16:11:30.280Z,56.50
2017-10-04T16:14:00.167Z,57.00
2017-10-04T16:16:30.723Z,56.60
2017-10-04T16:18:59.021Z,57.70
2017-10-04T16:21:28.709Z,57.90
2017-10-04T16:23:58.335Z,58.40
2017-10-04T16:26:28.268Z,58.00
2017-10-04T16:28:57.816Z,58.20
2017-10-04T16:31:28.950Z,58.50
2017-10-04T16:33:59.802Z,58.40
2017-10-04T16:36:32.181Z,58.90
2017-10-04T16:39:01.963Z,58.00
2017-10-04T16:41:36.279Z,58.20
2017-10-04T16:44:06.854Z,57.90
2017-10-04T16:46:36.321Z,57.90
2017-10-04T16:49:07.092Z,58.70
2017-10-04T16:51:35.771Z,58.70
2017-10-04T16:54:05.424Z,58.80
2017-10-04T16:56:33.836Z,58.90
2017-10-04T16:59:03.924Z,59.30
2017-10-04T17:01:32.773Z,59.30
2017-10-04T17:04:00.362Z,59.30
2017-10-04T17:06:27.965Z,59.10
2017-10-04T17:08:56.292Z,59.20
2017-10-04T17:11:23.853Z,59.10
2017-10-04T17:13:51.441Z,59.70
2017-10-04T17:16:19.035Z,60.30
2017-10-04T17:18:46.629Z,59.50
2017-10-04T17:21:14.194Z,59.60
2017-10-04T17:23:41.798Z,59.90
2017-10-04T17:26:10.160Z,60.10
2017-10-04T17:28:37.766Z,60.10
2017-10-04T17:31:05.327Z,60.20
2017-10-04T17:33:32.915Z,60.40
2017-10-04T17:36:00.530Z,60.50
2017-10-04T17:38:28.859Z,60.40
2017-10-04T17:40:56.483Z,60.40
2017-10-04T17:43:24.058Z,59.70
2017-10-04T17:45:51.622Z,60.00
2017-10-04T17:48:19.217Z,60.30
2017-10-04T17:50:46.822Z,60.50
2017-10-04T17:53:14.382Z,59.70
2017-10-04T17:55:42.729Z,59.70
2017-10-04T17:58:10.355Z,59.60
2017-10-04T18:00:38.212Z,59.60
2017-10-04T18:03:05.817Z,59.80
2017-10-04T18:05:33.418Z,60.10
2017-10-04T18:08:01.018Z,59.40
2017-10-04T18:10:28.590Z,59.60
2017-10-04T18:12:56.190Z,59.80
2017-10-04T18:15:24.567Z,60.50
2017-10-04T18:17:52.890Z,60.00
2017-10-04T18:20:20.515Z,59.90
2017-10-04T18:22:48.074Z,60.50
2017-10-04T18:25:15.685Z,60.10
2017-10-04T18:27:43.244Z,60.20
2017-10-04T18:30:10.806Z,60.10
2017-10-04T18:32:38.396Z,60.20
2017-10-04T18:35:06.000Z,60.50
2017-10-04T18:37:33.603Z,61.40
2017-10-04T18:40:01.206Z,60.20
2017-10-04T18:42:28.822Z,60.40
2017-10-04T18:44:56.382Z,60.20
2017-10-04T18:47:23.993Z,60.50
2017-10-04T18:49:51.587Z,60.10
2017-10-04T18:52:19.150Z,59.80
2017-10-04T18:54:46.734Z,60.00
2017-10-04T18:57:14.297Z,60.20
2017-10-04T18:59:41.895Z,60.40
2017-10-04T19:02:09.491Z,60.80
2017-10-04T19:04:37.039Z,61.00
2017-10-04T19:07:04.645Z,60.50
2017-10-04T19:09:32.198Z,60.90
2017-10-04T19:11:59.763Z,60.40
2017-10-04T19:14:27.381Z,60.80
2017-10-04T19:16:54.994Z,61.20
2017-10-04T19:19:22.563Z,60.70
2017-10-04T19:21:50.919Z,60.70
2017-10-04T19:24:21.474Z,60.70
2017-10-04T19:26:49.838Z,61.10
2017-10-04T19:29:17.436Z,61.00
2017-10-04T19:31:44.997Z,60.50
2017-10-04T19:34:12.625Z,60.90
2017-10-04T19:36:40.259Z,61.00
2017-10-04T19:39:07.818Z,61.40
2017-10-04T19:41:35.382Z,61.00
2017-10-04T19:44:03.001Z,61.40
2017-10-04T19:46:30.575Z,61.20
2017-10-04T19:48:58.166Z,61.00
2017-10-04T19:51:25.723Z,61.70
2017-10-04T19:53:53.285Z,61.50
2017-10-04T19:56:21.086Z,61.00
2017-10-04T19:58:49.427Z,61.20
2017-10-04T20:01:16.997Z,61.10
2017-10-04T20:03:45.012Z,61.30
2017-10-04T20:06:12.570Z,61.90
2017-10-04T20:08:41.028Z,61.60
2017-10-04T20:11:09.463Z,61.60
2017-10-04T20:13:37.082Z,61.60
2017-10-04T20:16:05.450Z,61.90
2017-10-04T20:18:33.937Z,61.40
2017-10-04T20:21:01.619Z,61.30
2017-10-04T20:23:29.267Z,62.00
2017-10-04T20:25:57.606Z,61.30
2017-10-04T20:28:25.219Z,61.30
2017-10-04T20:30:52.854Z,61.20
2017-10-04T20:33:20.423Z,61.20
2017-10-04T20:35:48.753Z,62.00
2017-10-04T20:38:16.345Z,62.00
2017-10-04T20:40:43.914Z,61.60
2017-10-04T20:43:12.281Z,62.50
2017-10-04T20:45:39.843Z,62.40
2017-10-04T20:48:07.429Z,62.10
2017-10-04T20:50:35.766Z,62.60
2017-10-04T20:53:03.359Z,62.60
2017-10-04T20:55:31.690Z,62.20
2017-10-04T20:57:59.290Z,62.20
2017-10-04T21:00:26.849Z,62.00
2017-10-04T21:02:54.443Z,62.10
2017-10-04T21:05:22.039Z,62.00
2017-10-04T21:07:49.588Z,62.70
2017-10-04T21:10:18.214Z,62.40
2017-10-04T21:12:45.781Z,62.90
2017-10-04T21:15:14.473Z,62.80
2017-10-04T21:17:42.859Z,62.80
2017-10-04T21:20:11.180Z,62.70
2017-10-04T21:22:38.743Z,62.70
2017-10-04T21:25:06.342Z,63.10
2017-10-04T21:27:33.893Z,63.40
2017-10-04T21:30:01.449Z,63.00
2017-10-04T21:32:29.027Z,63.10
2017-10-04T21:34:57.367Z,63.70
2017-10-04T21:37:24.967Z,63.70
2017-10-04T21:39:52.562Z,64.10
2017-10-04T21:42:20.117Z,63.80
2017-10-04T21:44:47.727Z,64.20
2017-10-04T21:47:15.333Z,64.70
2017-10-04T21:49:43.666Z,64.00
2017-10-04T21:52:11.233Z,63.80
2017-10-04T21:54:38.847Z,64.20
2017-10-04T21:57:06.436Z,64.70
2017-10-04T21:59:33.991Z,64.70
2017-10-04T22:02:01.586Z,64.70
2017-10-04T22:04:29.189Z,64.20
2017-10-04T22:06:56.785Z,64.60
2017-10-04T22:09:24.347Z,64.30
2017-10-04T22:11:51.912Z,64.10
2017-10-04T22:14:19.511Z,64.30
2017-10-04T22:16:47.850Z,63.70
2017-10-04T22:19:15.459Z,63.70
2017-10-04T22:21:43.787Z,63.80
2017-10-04T22:24:11.351Z,63.80
2017-10-04T22:26:38.958Z,64.30
2017-10-04T22:29:07.315Z,64.70
2017-10-04T22:31:34.870Z,64.70
2017-10-04T22:34:02.479Z,64.60
2017-10-04T22:36:30.078Z,64.30
2017-10-04T22:38:57.637Z,64.70
2017-10-04T22:41:25.212Z,64.60
2017-10-04T22:43:52.802Z,64.20
2017-10-04T22:46:21.121Z,64.90
2017-10-04T22:48:48.740Z,64.90
2017-10-04T22:51:17.062Z,64.40
2017-10-04T22:53:44.603Z,64.40
2017-10-04T22:56:12.206Z,64.50
2017-10-04T22:58:39.758Z,64.70
2017-10-04T23:01:07.315Z,64.30
2017-10-04T23:03:34.903Z,63.90
2017-10-04T23:06:02.454Z,64.30
2017-10-04T23:08:30.059Z,64.40
2017-10-04T23:10:57.661Z,64.50
2017-10-04T23:13:25.216Z,64.30
2017-10-04T23:15:52.819Z,64.50
2017-10-04T23:18:21.166Z,64.50
2017-10-04T23:20:48.723Z,64.50
2017-10-04T23:23:16.313Z,64.50
2017-10-04T23:25:44.660Z,64.60
2017-10-04T23:28:12.245Z,64.50
2017-10-04T23:30:40.566Z,65.00
2017-10-04T23:33:08.156Z,64.90
2017-10-04T23:35:35.711Z,64.70
2017-10-04T23:38:03.303Z,64.70
2017-10-04T23:40:30.906Z,64.90
2017-10-04T23:42:58.499Z,64.60
2017-10-04T23:45:26.057Z,64.60
2017-10-04T23:47:53.651Z,65.00
2017-10-04T23:50:22.018Z,64.60
2017-10-04T23:52:49.616Z,64.60
2017-10-04T23:55:17.173Z,64.40
2017-10-04T23:57:44.770Z,64.40
